Data for 12/27/2009

Time Sea-Level Adjusted Pressure Absolute Pressure Temperature Relative Humidity Dew Point   
(mb) (inHg) (mb) (inHg) (C) (F) (%) (C) (F)
00:05 1023 30.21 852 25.16 -12.6 9.4 88 -14.1 6.6
00:10 1023 30.21 852 25.16 -12.6 9.3 90 -14 6.8
00:15 1023 30.21 852 25.16 -12.5 9.4 87 -14.2 6.4
00:20 1023 30.21 852 25.16 -12.7 9.2 86 -14.6 5.8
00:25 1023 30.21 852 25.16 -13 8.7 86 -14.8 5.4
00:30 1023 30.21 852 25.16 -13 8.6 87 -14.7 5.5
00:35 1023 30.21 852 25.16 -12.9 8.8 86 -14.8 5.4
00:40 1023 30.21 852 25.16 -13 8.6 87 -14.8 5.4
00:45 1023 30.21 852 25.16 -13 8.7 87 -14.6 5.7
00:50 1023 30.21 852 25.16 -12.8 8.9 87 -14.6 5.8
00:55 1023 30.21 852 25.16 -12.8 8.9 88 -14.4 6
01:00 1023 30.21 852 25.16 -12.7 9.2 88 -14.2 6.4
01:05 1023 30.21 852 25.16 -12.4 9.6 88 -14 6.8
01:10 1023 30.21 852 25.16 -12.2 10.1 87 -13.9 7.1
01:15 1023 30.21 852 25.16 -12.1 10.2 88 -13.7 7.4
01:20 1023 30.21 852 25.16 -12.1 10.2 88 -13.7 7.4
01:25 1023 30.21 852 25.16 -12.1 10.2 88 -13.8 7.2
01:30 1023 30.21 852 25.16 -12.3 9.9 86 -14.1 6.6
01:35 1023 30.21 852 25.16 -12.6 9.3 88 -14.2 6.4
01:40 1023 30.21 852 25.16 -12.6 9.2 90 -14 6.9
01:45 1023 30.21 852 25.16 -12.4 9.7 88 -14 6.9
01:50 1023 30.21 852 25.16 -12.9 8.9 87 -14.6 5.7
01:55 1023 30.21 852 25.16 -13.4 7.8 91 -14.6 5.7
02:00 1023 30.21 852 25.16 -13 8.7 90 -14.3 6.3
02:05 1023 30.21 852 25.16 -12.4 9.7 87 -14.2 6.5
02:10 1023 30.21 852 25.16 -12.3 9.9 88 -13.9 6.9
02:15 1023 30.21 852 25.16 -12.5 9.5 89 -14 6.9
02:20 1023 30.21 852 25.16 -12.5 9.5 89 -13.9 6.9
02:25 1023 30.21 852 25.16 -12.6 9.4 88 -14.1 6.6
02:30 1023 30.21 852 25.16 -12.5 9.5 88 -14.1 6.6
02:35 1023 30.21 852 25.16 -12.5 9.5 89 -14 6.8
02:40 1023 30.21 852 25.16 -12.2 10 88 -13.9 7
02:45 1023 30.21 852 25.16 -12.1 10.2 87 -13.9 7
02:50 1023 30.21 852 25.16 -12.3 9.9 88 -13.9 7
02:55 1023 30.21 852 25.16 -12.7 9.1 88 -14.4 6.1
03:00 1023 30.21 852 25.16 -12.7 9.2 86 -14.5 5.9
03:05 1023 30.21 852 25.16 -12.7 9.2 86 -14.6 5.8
03:10 1023 30.21 852 25.16 -12.6 9.4 85 -14.6 5.7
03:15 1023 30.21 852 25.16 -12.9 8.9 85 -14.8 5.3
03:20 1023 30.21 852 25.16 -13 8.6 87 -14.7 5.5
03:25 1023 30.21 852 25.16 -12.9 8.7 87 -14.6 5.7
03:30 1023 30.21 852 25.16 -13 8.7 88 -14.5 5.9
03:35 1023 30.21 852 25.16 -12.7 9.1 87 -14.4 6
03:40 1023 30.21 852 25.16 -12.7 9.1 87 -14.5 5.9
03:45 1023 30.21 852 25.16 -12.7 9.1 88 -14.3 6.3
03:50 1023 30.21 852 25.16 -12.5 9.5 87 -14.3 6.3
03:55 1023 30.21 852 25.16 -13.5 7.7 87 -15.2 4.6
04:00 1023 30.21 852 25.16 -13.5 7.7 89 -15 5
04:05 1023 30.21 852 25.16 -12.9 8.8 89 -14.3 6.3
04:10 1023 30.21 852 25.16 -12.5 9.5 87 -14.2 6.5
04:15 1023 30.21 852 25.16 -12.7 9.1 85 -14.7 5.6
04:20 1023 30.21 852 25.16 -12.9 8.8 85 -15 5.1
04:25 1023 30.21 852 25.16 -13 8.6 85 -15 5
04:30 1023 30.21 852 25.16 -12.8 8.9 85 -14.8 5.3
04:35 1023 30.21 852 25.16 -12.8 8.9 85 -14.9 5.2
04:40 1023 30.21 852 25.16 -12.9 8.7 86 -14.8 5.3
04:45 1023 30.21 852 25.16 -13 8.5 87 -14.7 5.5
04:50 1023 30.21 852 25.16 -12.9 8.8 86 -14.7 5.6
04:55 1023 30.21 852 25.16 -12.9 8.9 87 -14.6 5.7
05:00 1023 30.21 852 25.16 -13.2 8.3 88 -14.8 5.4
05:05 1023 30.21 852 25.16 -13.3 8 89 -14.8 5.4
05:10 1023 30.21 852 25.16 -13.2 8.3 86 -15 5
05:15 1023 30.21 852 25.16 -13.4 8 86 -15.3 4.5
05:20 1023 30.21 852 25.16 -13.3 8 85 -15.3 4.4
05:25 1023 30.21 852 25.16 -13.3 8 86 -15.2 4.6
05:30 1023 30.21 852 25.16 -13.2 8.2 84 -15.4 4.2
05:35 1023 30.21 852 25.16 -13.5 7.7 81 -16.1 3.1
05:40 1023 30.21 852 25.16 -14 6.9 90 -15.3 4.5
05:45 1023 30.21 852 25.16 -13.4 7.8 89 -14.9 5.2
05:50 1023 30.21 852 25.16 -13.4 7.8 86 -15.3 4.5
05:55 1023 30.21 852 25.16 -13.5 7.7 87 -15.3 4.5
06:00 1023 30.21 852 25.16 -13.3 8.1 84 -15.4 4.2
06:05 1023 30.21 852 25.16 -13.6 7.5 85 -15.7 3.8
06:10 1023 30.21 852 25.16 -14.1 6.6 85 -16.1 3
06:15 1023 30.21 852 25.16 -14.4 6.2 88 -15.9 3.3
06:20 1023 30.21 852 25.16 -14.3 6.4 88 -15.8 3.5
06:25 1023 30.21 852 25.16 -14.2 6.4 88 -15.8 3.5
06:30 1023 30.21 852 25.16 -14.2 6.5 88 -15.8 3.6
06:35 1023 30.21 852 25.16 -14 6.8 87 -15.8 3.6
06:40 1023 30.21 852 25.16 -14.2 6.4 88 -15.8 3.5
06:45 1023 30.21 852 25.16 -14.4 6.2 88 -16 3.2
06:50 1023 30.21 852 25.16 -14.4 6.1 87 -16.1 3
06:55 1023 30.21 852 25.16 -14.4 6.1 87 -16.1 3
07:00 1023 30.21 852 25.16 -14.5 5.8 88 -16.1 3
07:05 1023 30.21 852 25.16 -14.5 6 88 -16.1 3
07:10 1023 30.21 852 25.16 -14.4 6.1 88 -15.9 3.3
07:15 1023 30.21 852 25.16 -14.3 6.2 89 -15.8 3.6
07:20 1023 30.21 852 25.16 -14.3 6.3 89 -15.7 3.8
07:25 1023 30.21 852 25.16 -14 6.8 90 -15.4 4.3
07:30 1023 30.21 852 25.16 -13.7 7.3 89 -15.2 4.7
07:35 1023 30.21 852 25.16 -13.6 7.6 88 -15.1 4.8
07:40 1023 30.21 852 25.16 -13.5 7.8 85 -15.5 4.1
07:45 1023 30.21 852 25.16 -13.6 7.5 81 -16.3 2.7
07:50 1023 30.21 852 25.16 -13.9 7 86 -15.7 3.7
07:55 1023 30.21 852 25.16 -13.5 7.6 83 -15.8 3.5
08:00 1023 30.21 852 25.16 -13.9 7 87 -15.6 3.9
08:05 1023 30.21 853 25.19 -13.6 7.5 83 -15.9 3.4
08:10 1023 30.21 853 25.19 -14.3 6.3 85 -16.3 2.7
08:15 1023 30.21 853 25.19 -14.5 5.9 90 -15.8 3.5
08:20 1023 30.21 853 25.19 -14.1 6.6 88 -15.7 3.7
08:25 1023 30.21 853 25.19 -14.4 6 90 -15.7 3.7
08:30 1023 30.21 853 25.19 -13.8 7.1 86 -15.7 3.8
08:35 1023 30.21 853 25.19 -13.5 7.8 85 -15.5 4.2
08:40 1024 30.24 853 25.19 -13.3 8.1 84 -15.5 4
08:45 1024 30.24 853 25.19 -13.3 8.1 82 -15.7 3.7
08:50 1024 30.24 853 25.19 -13 8.6 81 -15.6 3.8
08:55 1024 30.24 853 25.19 -13.1 8.5 80 -15.8 3.5
09:00 1024 30.24 853 25.19 -13.2 8.3 76 -16.6 2.2
09:05 1024 30.24 853 25.19 -14.1 6.7 83 -16.4 2.6
09:10 1024 30.24 853 25.19 -14 6.9 85 -15.9 3.4
09:15 1024 30.24 853 25.19 -13.2 8.3 83 -15.4 4.2
09:20 1024 30.24 853 25.19 -12.8 9 80 -15.6 3.9
09:25 1024 30.24 853 25.19 -13 8.6 78 -16.1 3
09:30 1024 30.24 853 25.19 -13 8.7 79 -16 3.3
09:35 1024 30.24 853 25.19 -12.5 9.6 79 -15.3 4.4
09:40 1024 30.24 853 25.19 -12 10.4 78 -15 4.9
09:45 1024 30.24 853 25.19 -11.2 11.9 73 -15 4.9
09:50 1024 30.24 853 25.19 -10.9 12.4 72 -15.1 4.8
09:55 1024 30.24 853 25.19 -10.7 12.7 71 -15 5
10:00 1024 30.24 853 25.19 -10.4 13.3 69 -15 5
10:05 1024 30.24 853 25.19 -9.8 14.4 68 -14.7 5.6
10:10 1024 30.24 853 25.19 -9.4 15.1 68 -14.3 6.2
10:15 1024 30.24 853 25.19 -9 15.7 66 -14.3 6.3
10:20 1024 30.24 853 25.19 -9.1 15.6 67 -14.1 6.6
10:25 1024 30.24 854 25.22 -9.2 15.5 68 -14 6.8
10:30 1024 30.24 854 25.22 -8.7 16.3 66 -13.9 7
10:35 1024 30.24 854 25.22 -8.7 16.3 66 -13.9 7
10:40 1024 30.24 854 25.22 -8.5 16.8 66 -13.7 7.3
10:45 1024 30.24 854 25.22 -8.4 16.9 66 -13.8 7.2
10:50 1024 30.24 854 25.22 -8.3 17 66 -13.6 7.6
10:55 1024 30.24 854 25.22 -8.7 16.4 67 -13.7 7.4
11:00 1024 30.24 854 25.22 -8.7 16.4 67 -13.8 7.2
11:05 1024 30.24 854 25.22 -8.4 16.9 65 -13.9 6.9
11:10 1024 30.24 853 25.19 -8.4 16.9 66 -13.7 7.3
11:15 1024 30.24 853 25.19 -8 17.6 64 -13.8 7.2
11:20 1024 30.24 853 25.19 -7.8 18 63 -13.7 7.4
11:25 1024 30.24 853 25.19 -8.1 17.5 64 -13.7 7.3
11:30 1024 30.24 853 25.19 -8.2 17.3 64 -13.8 7.2
11:35 1024 30.24 853 25.19 -8.6 16.6 67 -13.7 7.3
11:40 1024 30.24 853 25.19 -8.8 16.1 66 -14 6.8
11:45 1024 30.24 853 25.19 -8.7 16.3 67 -13.8 7.2
11:50 1024 30.24 853 25.19 -8.6 16.6 67 -13.7 7.3
11:55 1024 30.24 853 25.19 -8.6 16.6 66 -13.8 7.2
12:00 1024 30.24 853 25.19 -8.4 17 66 -13.6 7.5
12:05 1024 30.24 853 25.19 -8.1 17.3 64 -13.7 7.3
12:10 1024 30.24 853 25.19 -7.6 18.3 62 -13.8 7.2
12:15 1024 30.24 853 25.19 -7.8 18 65 -13.3 8
12:20 1024 30.24 853 25.19 -7.6 18.4 64 -13.2 8.2
12:25 1024 30.24 853 25.19 -7.7 18.1 65 -13.2 8.3
12:30 1024 30.24 853 25.19 -7.7 18.1 65 -13.3 8.1
12:35 1024 30.24 853 25.19 -7.6 18.3 64 -13.3 8.1
12:40 1024 30.24 853 25.19 -7.6 18.3 63 -13.5 7.7
12:45 1024 30.24 853 25.19 -7.2 19.1 63 -13.1 8.5
12:50 1024 30.24 853 25.19 -7.1 19.1 62 -13.2 8.2
12:55 1024 30.24 853 25.19 -6.6 20.1 63 -12.6 9.3
13:00 1024 30.24 853 25.19 -6.4 20.5 62 -12.5 9.5
13:05 1024 30.24 853 25.19 -6.8 19.8 63 -12.8 9
13:10 1024 30.24 853 25.19 -6.1 21.1 58 -13 8.6
13:15 1024 30.24 853 25.19 -5.6 22 58 -12.6 9.4
13:20 1024 30.24 853 25.19 -6.1 20.9 60 -12.7 9.1
13:25 1024 30.24 853 25.19 -6.9 19.6 63 -12.7 9.1
13:30 1024 30.24 853 25.19 -7.2 19.1 64 -12.8 8.9
13:35 1024 30.24 853 25.19 -7 19.4 63 -12.9 8.7
13:40 1024 30.24 853 25.19 -6.7 19.9 62 -12.9 8.8
13:45 1024 30.24 853 25.19 -6.6 20.1 62 -12.8 9
13:50 1024 30.24 853 25.19 -6.5 20.3 62 -12.7 9.2
13:55 1024 30.24 853 25.19 -6.6 20.1 62 -12.8 8.9
14:00 1024 30.24 853 25.19 -6.7 19.9 62 -12.9 8.8
14:05 1024 30.24 853 25.19 -6.8 19.8 63 -12.7 9.1
14:10 1024 30.24 853 25.19 -6.1 21.1 59 -12.7 9.1
14:15 1024 30.24 853 25.19 -5.6 21.9 57 -12.8 9
14:20 1024 30.24 853 25.19 -5.7 21.8 61 -12.1 10.2
14:25 1024 30.24 853 25.19 -6.5 20.2 61 -12.8 8.9
14:30 1024 30.24 853 25.19 -6 21.2 59 -12.7 9.1
14:35 1024 30.24 853 25.19 -6 21.2 60 -12.6 9.3
14:40 1024 30.24 853 25.19 -6.5 20.4 60 -12.9 8.7
14:45 1024 30.24 853 25.19 -6.5 20.3 59 -13.2 8.3
14:50 1024 30.24 853 25.19 -6.1 21 59 -12.9 8.8
14:55 1024 30.24 853 25.19 -5.8 21.5 57 -13.1 8.5
15:00 1024 30.24 853 25.19 -5.8 21.6 57 -12.9 8.8
15:05 1024 30.24 853 25.19 -6.2 20.9 61 -12.5 9.6
15:10 1024 30.24 853 25.19 -7.1 19.2 63 -13 8.7
15:15 1024 30.24 853 25.19 -6.9 19.7 60 -13.4 7.8
15:20 1024 30.24 853 25.19 -6.5 20.4 59 -13.2 8.3
15:25 1024 30.24 853 25.19 -6.8 19.8 60 -13.3 8
15:30 1024 30.24 853 25.19 -6.7 19.9 60 -13.3 8
15:35 1024 30.24 853 25.19 -6.6 20.1 60 -13.2 8.2
15:40 1024 30.24 853 25.19 -6.9 19.6 60 -13.4 7.8
15:45 1024 30.24 853 25.19 -6.7 19.9 60 -13.3 8
15:50 1024 30.24 853 25.19 -6.7 20 59 -13.4 7.9
15:55 1024 30.24 853 25.19 -7 19.5 61 -13.3 8
16:00 1024 30.24 853 25.19 -7.4 18.8 63 -13.2 8.2
16:05 1024 30.24 853 25.19 -7.6 18.3 64 -13.3 8.1
16:10 1024 30.24 853 25.19 -7.8 17.9 65 -13.4 7.9
16:15 1024 30.24 853 25.19 -8.2 17.3 66 -13.5 7.7
16:20 1024 30.24 853 25.19 -8.5 16.7 68 -13.4 7.8
16:25 1024 30.24 853 25.19 -8.5 16.7 66 -13.7 7.3
16:30 1024 30.24 853 25.19 -8.2 17.2 64 -13.9 7
16:35 1024 30.24 853 25.19 -8.4 16.9 67 -13.6 7.6
16:40 1024 30.24 853 25.19 -9 15.8 70 -13.6 7.5
16:45 1024 30.24 853 25.19 -9.5 14.9 73 -13.6 7.6
16:50 1024 30.24 853 25.19 -9.9 14.2 74 -13.7 7.3
16:55 1024 30.24 853 25.19 -10.1 13.7 75 -13.7 7.3
17:00 1024 30.24 853 25.19 -10.5 13.2 77 -13.8 7.1
17:05 1024 30.24 853 25.19 -10.8 12.7 79 -13.8 7.2
17:10 1024 30.24 853 25.19 -10.7 12.7 78 -13.9 7
17:15 1024 30.24 853 25.19 -10.6 12.9 78 -13.8 7.1
17:20 1024 30.24 853 25.19 -10.9 12.5 78 -13.9 6.9
17:25 1024 30.24 853 25.19 -11.2 11.8 80 -14 6.8
17:30 1024 30.24 853 25.19 -11 12.2 78 -14 6.7
17:35 1024 30.24 853 25.19 -11.5 11.4 80 -14.3 6.2
17:40 1024 30.24 853 25.19 -12.1 10.2 83 -14.5 6
17:45 1024 30.24 853 25.19 -12.1 10.2 84 -14.3 6.2
17:50 1024 30.24 853 25.19 -12.4 9.7 86 -14.3 6.2
17:55 1024 30.24 853 25.19 -12.5 9.5 82 -14.9 5.1
18:00 1024 30.24 853 25.19 -12.9 8.7 87 -14.7 5.5
18:05 1024 30.24 854 25.22 -12.9 8.8 87 -14.6 5.7
18:10 1024 30.24 854 25.22 -12.8 8.9 87 -14.6 5.8
18:15 1024 30.24 854 25.22 -12.6 9.3 86 -14.5 5.9
18:20 1024 30.24 854 25.22 -12.2 10 86 -14 6.7
18:25 1024 30.24 854 25.22 -12.1 10.2 86 -14 6.8
18:30 1024 30.24 854 25.22 -12 10.4 84 -14.1 6.5
18:35 1024 30.24 854 25.22 -12.3 9.9 85 -14.3 6.3
18:40 1024 30.24 854 25.22 -12.5 9.4 86 -14.4 6
18:45 1024 30.24 854 25.22 -12.6 9.2 86 -14.5 5.8
18:50 1025 30.27 854 25.22 -12.7 9.1 87 -14.5 5.9
18:55 1025 30.27 854 25.22 -12.8 9 87 -14.6 5.8
19:00 1025 30.27 854 25.22 -12.9 8.8 88 -14.5 6
19:05 1025 30.27 854 25.22 -12.6 9.4 88 -14.2 6.4
19:10 1025 30.27 854 25.22 -12.3 9.9 87 -14 6.9
19:15 1025 30.27 854 25.22 -12.2 10.1 85 -14.2 6.4
19:20 1025 30.27 854 25.22 -12.5 9.5 88 -14.1 6.6
19:25 1025 30.27 854 25.22 -12.3 9.8 87 -14.1 6.6
19:30 1025 30.27 854 25.22 -12.3 9.8 88 -13.9 7
19:35 1025 30.27 854 25.22 -12.1 10.2 87 -13.9 7.1
19:40 1025 30.27 854 25.22 -12.1 10.2 86 -14 6.8
19:45 1025 30.27 854 25.22 -12.2 10.1 86 -14.1 6.5
19:50 1025 30.27 854 25.22 -12.1 10.1 83 -14.5 5.9
19:55 1025 30.27 854 25.22 -12.7 9.2 87 -14.4 6
20:00 1025 30.27 854 25.22 -12.6 9.4 88 -14.2 6.5
20:05 1025 30.27 854 25.22 -12.2 10 87 -14 6.8
20:10 1025 30.27 854 25.22 -12.5 9.6 88 -14.1 6.6
20:15 1025 30.27 854 25.22 -12.6 9.4 88 -14.2 6.5
20:20 1025 30.27 854 25.22 -12.3 9.8 87 -14.1 6.7
20:25 1025 30.27 854 25.22 -12 10.4 86 -13.9 7.1
20:30 1025 30.27 854 25.22 -12.2 10.1 87 -14 6.9
20:35 1025 30.27 854 25.22 -12.3 9.9 88 -13.8 7.1
20:40 1025 30.27 854 25.22 -12 10.5 88 -13.6 7.5
20:45 1025 30.27 854 25.22 -12.1 10.2 86 -14 6.8
20:50 1025 30.27 854 25.22 -12.6 9.3 89 -14.1 6.6
20:55 1025 30.27 854 25.22 -12.3 9.8 88 -14 6.9
21:00 1025 30.27 854 25.22 -12.3 9.8 85 -14.4 6.1
21:05 1025 30.27 854 25.22 -12.9 8.8 90 -14.2 6.4
21:10 1025 30.27 854 25.22 -12.5 9.5 87 -14.3 6.3
21:15 1025 30.27 854 25.22 -12.4 9.7 82 -14.8 5.3
21:20 1025 30.27 854 25.22 -13 8.5 85 -15.1 4.8
21:25 1025 30.27 854 25.22 -13.3 8.1 86 -15.2 4.6
21:30 1025 30.27 854 25.22 -13.6 7.6 89 -15.1 4.9
21:35 1025 30.27 854 25.22 -13.1 8.4 86 -14.9 5.1
21:40 1025 30.27 854 25.22 -12.8 9 85 -14.9 5.2
21:45 1025 30.27 854 25.22 -12.7 9.1 86 -14.7 5.6
21:50 1025 30.27 854 25.22 -12.6 9.4 85 -14.5 5.8
21:55 1025 30.27 854 25.22 -12.6 9.4 84 -14.7 5.5
22:00 1025 30.27 854 25.22 -12.8 9 84 -15 5
22:05 1025 30.27 854 25.22 -13 8.7 84 -15.1 4.9
22:10 1025 30.27 854 25.22 -12.8 9 85 -14.7 5.5
22:15 1025 30.27 854 25.22 -12.6 9.3 86 -14.4 6
22:20 1025 30.27 854 25.22 -12.6 9.3 87 -14.4 6.1
22:25 1025 30.27 854 25.22 -12.5 9.5 86 -14.4 6
22:30 1025 30.27 854 25.22 -12.4 9.7 86 -14.2 6.4
22:35 1025 30.27 854 25.22 -12.5 9.5 88 -14.1 6.6
22:40 1025 30.27 854 25.22 -12.6 9.4 86 -14.4 6
22:45 1025 30.27 855 25.25 -12.5 9.5 88 -14.1 6.6
22:50 1025 30.27 855 25.25 -12.4 9.7 86 -14.3 6.2
22:55 1025 30.27 855 25.25 -13.2 8.3 83 -15.5 4.1
23:00 1025 30.27 855 25.25 -14 6.8 94 -14.9 5.3
23:05 1025 30.27 855 25.25 -12.8 8.9 91 -14.1 6.7
23:10 1025 30.27 855 25.25 -12.7 9.2 88 -14.3 6.3
23:15 1025 30.27 855 25.25 -13 8.7 89 -14.5 6
23:20 1025 30.27 855 25.25 -12.9 8.8 89 -14.4 6.1
23:25 1025 30.27 855 25.25 -13.3 8.1 89 -14.8 5.4
23:30 1025 30.27 855 25.25 -13.4 7.9 92 -14.4 6.1
23:35 1025 30.27 855 25.25 -13 8.6 91 -14.2 6.5
23:40 1025 30.27 855 25.25 -12.7 9.1 91 -13.9 6.9
23:45 1025 30.27 855 25.25 -12.4 9.6 89 -13.9 6.9
23:50 1025 30.27 855 25.25 -12.6 9.3 85 -14.6 5.7
23:55 1025 30.27 855 25.25 -13.3 8.1 88 -14.9 5.2
24:00 1025 30.27 855 25.25 -13.2 8.3 86 -15 5